METAR AND TAF INFORMATION
METAR FOR SBIH
ADDS - METARS form results

(1125 UTC 19 January 2019)
Data provider http://aviationweather.gov/metar/data/
 
Forecast for: SBIH (ITAITUBA , BR)
Text: TAF SBIH 190400Z 1906/1918 05005KT 9999 FEW010 TN25/1911Z TX32/1918Z
Forecast period: 0600 to 1200 UTC 19 January 2019
Forecast type: FROM: standard forecast or significant change
Winds: from the NE (50 degrees) at 6 MPH (5 knots; 2.6 m/s)
Visibility: 6 or more miles 10+ km)
Ceiling: at least 12,000 feet AGL
Clouds: few clouds at 1000 feet AGL
Weather: no significant weather forecast for this period
Text: BECMG 1912/1914 09005KT SCT020 RMK PAZ
Forecast period: 1200 to 1800 UTC 19 January 2019
Forecast type: BECOMING: Conditions expected to become as follows by 1400 UTC 19 January 2019
Winds: from the E (90 degrees) at 6 MPH (5 knots; 2.6 m/s)
Visibility: 6 or more miles 10+ km)
Ceiling: at least 12,000 feet AGL
Clouds: scattered clouds at 2000 feet AGL
Weather: no significant weather forecast for this period

 AIRPORT MAP

 RUNWAY INFORMATION
Runway 5 Runway length 5266 ft Runway width 98 ft
Runway elevation 0 ft Runway displaced threshold 0 ft Runway heading 0
Runway 23 Runway length 5266 ft Runway width 98 ft
Runway elevation 0 ft Runway displaced threshold 0 ft Runway heading 0

 AIRPORT FREQUENCIES
Type TWR Name TWR Frequency 118.4 MHZ

 AIRPORT NEAR NAVIGATION AIDS
Type NDB Name Itaituba Frequency 250 KHZ



Powered by Virtual Airlines Manager [v2.6.2]